Nearby METAR Reports

 

K8A0 - Albertville Muni, AL
Distance from station: SW 1mi, 2km
Updated: Thu, 16-Sep-2021 12:30pm CDT
Overcast
Overcast
 Wind from ESE
Wind: ESE 7 mph , 11 km/h
Temperature: 72°F , 22°C
Dew Point: 68°F , 20°C
Humidity: 88%
Barometer: 30.05 inHg , 1017.6 hPa
Clouds: Overcast
Visibility: 10 miles , 16 km
Cloud details: Overcast 1100 ft
2021/09/16 17:30 K8A0 161730Z AUTO 11006KT 10SM OVC011 22/20 A3005 RMK AO2
KGAD - Gadsden Muni, AL
Distance from station: SSE 21mi, 35km
Updated: Thu, 16-Sep-2021 12:39pm CDT

 Wind from ENE
Wind: ENE 7 mph , 11 km/h
Temperature: 73°F , 23°C
Dew Point: 72°F , 22°C
Humidity: 94%
Barometer: 30.04 inHg , 1017.3 hPa
Visibility: 10 miles , 16 km
2021/09/16 17:39 KGAD 161739Z AUTO 06006KT 10SM 23/22 A3004 RMK AO2 $
 
K4A6 - Scottsboro, AL
Distance from station: NNE 33mi, 53km
Updated: Thu, 16-Sep-2021 12:35pm CDT
Overcast
Overcast
 Wind from varies
Wind: varies 6 mph , 9 km/h, Gust: 14 mph , 22 km/h
Temperature: 77°F , 25°C
Dew Point: 72°F , 22°C
Humidity: 83%
Barometer: 30.05 inHg , 1017.6 hPa
Clouds: Overcast
Visibility: 10 miles , 16 km
Cloud details: Overcast 2400 ft
2021/09/16 17:35 K4A6 161735Z AUTO VRB05G12KT 10SM OVC024 25/22 A3005 RMK AO2
K4A9 - Ft Payne, AL
Distance from station: ENE 33mi, 54km
Updated: Thu, 16-Sep-2021 12:35pm CDT
Overcast
Overcast
 Wind from ESE
Wind: ESE 8 mph , 13 km/h
Temperature: 73°F , 23°C
Dew Point: 68°F , 20°C
Humidity: 83%
Barometer: 30.06 inHg , 1017.9 hPa
Clouds: Overcast
Visibility: 7 miles , 11 km
Cloud details: Overcast 1500 ft
2021/09/16 17:35 K4A9 161735Z AUTO 11007KT 7SM OVC015 23/20 A3006 RMK AO2 T02280198
 
KMDQ - Huntsville, AL
Distance from station: NNW 47mi, 75km
Updated: Thu, 16-Sep-2021 12:35pm CDT
Overcast
Overcast
 Wind from SE
Wind: SE 12 mph , 19 km/h
Temperature: 79°F , 26°C
Dew Point: 68°F , 20°C
Humidity: 70%
Barometer: 30.04 inHg , 1017.3 hPa
Clouds: Overcast
Visibility: 10 miles , 16 km
Cloud details: Partly cloudy 2700 ft
Overcast 3300 ft
2021/09/16 17:35 KMDQ 161735Z AUTO 14010KT 10SM SCT027 OVC033 26/20 A3004 RMK A02 T02620196
KDCU - Decatur, AL
Distance from station: NW 49mi, 80km
Updated: Thu, 16-Sep-2021 11:53am CDT
Mostly cloudy
Mostly cloudy
 Wind from SE
Wind: SE 6 mph , 9 km/h
Temperature: 79°F , 26°C
Dew Point: 68°F , 20°C
Humidity: 70%
Barometer: 30.03 inHg , 1016.9 hPa
Clouds: Mostly cloudy
Visibility: 10 miles , 16 km
Cloud details: Mostly cloudy 2200 ft
2021/09/16 16:53 KDCU 161653Z AUTO 13005KT 10SM BKN022 26/20 A3003 RMK AO2 SLP164 T02560200
 
KGKT - Sevierville, TN
Distance from station: NE 235mi, 378km
Updated: Thu, 16-Sep-2021 12:35pm CDT
Clear
Clear
 Wind from NNE
Wind: NNE 6 mph , 9 km/h
Temperature: 84°F , 29°C
Heat Index: 86°F , 30°C
Dew Point: 66°F , 19°C
Humidity: 55%
Barometer: 30.06 inHg , 1017.9 hPa
Clouds: Clear
Visibility: 10 miles , 16 km
2021/09/16 17:35 KGKT 161735Z AUTO 03005KT 10SM CLR 29/19 A3006 RMK A01
KSSI - Jeckyll Island, GA
Distance from station: SE 467mi, 752km
Updated: Thu, 16-Sep-2021 12:02pm CDT
Overcast
Overcast
 Wind from ESE
Wind: ESE 7 mph , 11 km/h
Temperature: 82°F , 28°C
Heat Index: 90°F , 32°C
Dew Point: 77°F , 25°C
Humidity: 84%
Barometer: 30.01 inHg , 1016.3 hPa
Clouds: Overcast
Visibility: 10 miles , 16 km
Cloud details: Few Clouds 2100 ft
Partly cloudy 2900 ft
Overcast 10000 ft
2021/09/16 17:02 KSSI 161702Z AUTO 11006KT 10SM FEW021 SCT029 OVC100 28/25 A3001 RMK AO2 T02830250
 
KECP - Panama City, FL
Distance from station: S 330mi, 531km
Updated: Thu, 16-Sep-2021 12:07pm CDT
Overcast
Overcast
 Wind from E
Wind: E 5 mph , 7 km/h
Temperature: 75°F , 24°C
Dew Point: 75°F , 24°C
Humidity: 100%
Barometer: 29.96 inHg , 1014.6 hPa
Clouds: Overcast
Visibility: 10 miles , 16 km
Cloud details: Partly cloudy 500 ft
Mostly cloudy 8000 ft
Overcast 11000 ft
2021/09/16 17:07 KECP 161707Z 09004KT 10SM SCT005 BKN080 OVC110 24/24 A2996 RMK AO2 RAE1658 P0000 T02390239
KTPA - Tampa, FL,
Distance from station: S 600mi, 965km
Updated: Thu, 16-Sep-2021 11:53am CDT
Mostly cloudy
Mostly cloudy
 Wind from SSW
Wind: SSW 7 mph , 11 km/h
Temperature: 84°F , 29°C
Heat Index: 92°F , 33°C
Dew Point: 75°F , 24°C
Humidity: 74%
Barometer: 29.99 inHg , 1015.6 hPa
Clouds: Mostly cloudy
Visibility: 10 miles , 16 km
Cloud details: Partly cloudy 2300 ft
Mostly cloudy 17000 ft
Mostly cloudy 25000 ft
2021/09/16 16:53 KTPA 161653Z 21006KT 10SM SCT023 BKN170 BKN250 29/24 A2999 RMK AO2 LTG DSNT W SLP155 CB DSNT W T02940239
 
KMTH - Marathon, FL,
Distance from station: S 915mi, 1473km
Updated: Thu, 16-Sep-2021 11:53am CDT
Partly cloudy
Partly cloudy
 Wind from S
Wind: S 8 mph , 13 km/h
Temperature: 88°F , 31°C
Heat Index: 100°F , 38°C
Dew Point: 77°F , 25°C
Humidity: 70%
Barometer: 30.02 inHg , 1016.6 hPa
Clouds: Partly cloudy
Visibility: 10 miles , 16 km
Cloud details: Few Clouds 8000 ft
Partly cloudy 11000 ft
2021/09/16 16:53 KMTH 161653Z AUTO 19007KT 10SM FEW080 SCT110 31/25 A3002 RMK AO2 SLP163 T03060250
KNYL - Yuma, AZ
Distance from station: W 3147mi, 5065km
Updated: Thu, 16-Sep-2021 11:57am CDT
Clear
Clear
 Wind from NNW
Wind: NNW 9 mph , 15 km/h
Temperature: 97°F , 36°C
Dew Point: 25°F , -4°C
Humidity: 7%
Barometer: 29.75 inHg , 1007.5 hPa
Clouds: Clear
Visibility: 7 miles , 11 km
2021/09/16 16:57 KNYL 161657Z 33008KT 7SM CLR 36/M04 A2975 RMK AO2 SLP069 T03561044 $
 
PABI - Ft. Greely, AK
Distance from station: NW 4300mi, 7167km
Updated: Thu, 16-Sep-2021 11:53am CDT
Overcast
Overcast
 Wind from E
Wind: E 6 mph , 9 km/h
Temperature: 39°F , 4°C
Wind Chill: 35°F , 2°C
Dew Point: 30°F , -1°C
Humidity: 70%
Barometer: 29.54 inHg , 1000.3 hPa
Clouds: Overcast
Visibility: 10 miles , 16 km
Cloud details: Partly cloudy 7000 ft
Mostly cloudy 15000 ft
Overcast 20000 ft
2021/09/16 16:53 PABI 161653Z 09005KT 10SM SCT070 BKN150 OVC200 04/M01 A2954 RMK AO2 SLP016 FREQ WATERFOWL VC T00391011